Henefer, UT (84033)

3:37 PM MDT on September 01, 2015 (GMT -0600)
Morgan 1426 | | Change Station
CLOSE
Current Station
Personal Weather Station
Location: Morgan, UT
Elevation: 5105 ft
Nearby Weather Stations

Elev 5105 ft 41.05 °N, 111.67 °W | Updated 1 minute ago

Mostly Cloudy
Mostly Cloudy
86.7 °F
Feels Like 83 °F
N
5.0
Wind Variable Wind from WSW
Gusts 12.0 mph

Today
High -- | Low -- °F
--% Chance of Precip.
Yesterday
High -- | Low -- °F
Precip. -- in
6:52 AM 7:58 PM
Waning Gibbous, 86% visible
Pressure 29.82 in
Visibility 10.0 miles
Clouds Scattered Clouds 10000 ft
Scattered Clouds 12000 ft
Mostly Cloudy 15000 ft
Mostly Cloudy 19000 ft
Heat Index 83 °F
Dew Point 37 °F
Humidity 17%
Rainfall 0.00 in
Snow Depth Not available.
UV 5 out of 12
Pollen 8.90 out of 12
Air Quality Not available.
Flu Activity Not available.
METAR KHIF 012058Z 03005KT 10SM SCT100 SCT120 BKN150 BKN190 26/12 A2999 RMK AO2A PK WND 29026/24 LTG DSNT N RAB01E36 TSB01E36 SLP096 P0002 60002 T02620115 56015
Pressure 29.82 in
Visibility 10.0 miles
Clouds Scattered Clouds 10000 ft
Scattered Clouds 12000 ft
Mostly Cloudy 15000 ft
Mostly Cloudy 19000 ft
Heat Index 83 °F
Dew Point 37 °F
Humidity 17%
Rainfall 0.00 in
Snow Depth Not available.
UV 5 out of 12
Pollen 8.90 out of 12
Air Quality Not available.
Flu Activity Not available.
METAR KHIF 012058Z 03005KT 10SM SCT100 SCT120 BKN150 BKN190 26/12 A2999 RMK AO2A PK WND 29026/24 LTG DSNT N RAB01E36 TSB01E36 SLP096 P0002 60002 T02620115 56015
Nowcast | as of 2:55 PM MDT on September 1, 2015

Scattered showers and thunderstorms will continue to develop this afternoon over portions of south central...east central and northern Utah...along with southwest Wyoming. The strongest storms at 250 PM were located just southwest of Eden...and across central Wayne County. Some of the stronger storms may produce locally heavy rain...small hail...gusty winds and dangerous lightning.

×

10-Day Weather Forecast

×

Almanac

Astronomy

Sep. 01, 2015 Rise Set
Actual Time
Civil Twilight
Nautical Twilight
Astronomical Twilight
Moon
Length of Visible Light
Length of Day
Tomorrow will be .
, % of the Moon is Illuminated

Today's Extremes

State Highs State Lows

Community

WunderPhotos

Upload Photos

1,851,628 photos uploaded!

WunderBlogs® & News

Nearby

Air Quality

  Air Quality AQ Index Pollutant
Not available.

Snow Depth

Station Depth Elevation

Earthquake Activity

City Distance Mag. Time & Date
Minimum magnitude displayed is 2.5.

Coastal Water Temperatures

Place Temperature

Stations

Nearby Weather Stations

Station Location Temp. Windchill Dew Point Humidity Wind Precip. Elev Updated Type